St. Catharines Third Ave

*Note: All times are displayed in the local standard time of the station location.
**Rain - Equipment is designed to accurately record liquid precipitation; under conditions when precipitation is not in liquid form, the data displayed may not properly reflect rainfall values.

Date Max Temp
(°C)
Min Temp
(°C)
Avg Temp
(°C)
Rain (mm) Avg RH (%)
Fri, Dec 14, 2018 6.4 -1.3 3.2 1.8 92.2
Thu, Dec 13, 2018 7.3 -2.0 1.1 1.0 94.0
Wed, Dec 12, 2018 1.9 -5.7 -0.8 0.2 85.8
Tue, Dec 11, 2018 0.0 -1.8 -1.0 0.0 81.7
Mon, Dec 10, 2018 1.3 -2.4 -0.8 0.0 81.9
Sun, Dec 09, 2018 1.8 -8.7 -2.8 0.0 76.4
Sat, Dec 08, 2018 0.4 -6.9 -3.0 0.0 75.0
DateTime Avg Temp (°C) Rain (mm) RH (%)
Sat, Dec 15, 2018 18:00 2.7 0.0 90.1
Sat, Dec 15, 2018 17:00 2.9 0.0 88.6
Sat, Dec 15, 2018 16:00 3.3 0.0 86.2
Sat, Dec 15, 2018 15:00 3.8 0.0 85.0
Sat, Dec 15, 2018 14:00 4.1 0.0 83.5
Sat, Dec 15, 2018 13:00 4.5 0.0 81.3
Sat, Dec 15, 2018 12:00 3.9 0.0 88.1
Sat, Dec 15, 2018 11:00 3.0 0.0 99.6
Sat, Dec 15, 2018 10:00 2.0 0.0 99.9
Sat, Dec 15, 2018 09:00 1.1 0.0 99.9
Sat, Dec 15, 2018 08:00 1.1 0.0 99.9
Sat, Dec 15, 2018 07:00 0.8 0.0 99.9
Sat, Dec 15, 2018 06:00 0.7 0.0 99.9
Sat, Dec 15, 2018 05:00 -0.1 0.0 99.9
Sat, Dec 15, 2018 04:00 0.1 0.0 99.9
Sat, Dec 15, 2018 03:00 0.8 0.0 99.9
Sat, Dec 15, 2018 02:00 1.6 0.0 99.9
Sat, Dec 15, 2018 01:00 2.6 0.0 98.3
Sat, Dec 15, 2018 00:00 4.1 0.0 92.2
Fri, Dec 14, 2018 23:00 4.5 0.0 91.3
Fri, Dec 14, 2018 22:00 4.0 0.0 88.9
Fri, Dec 14, 2018 21:00 3.8 0.0 91.1
Fri, Dec 14, 2018 20:00 3.9 0.0 95.7
Fri, Dec 14, 2018 19:00 4.0 0.0 87.2
Fri, Dec 14, 2018 18:00 2.8 0.0 90.4
Fri, Dec 14, 2018 17:00 4.5 0.0 83.4
Fri, Dec 14, 2018 16:00 6.3 0.0 76.0
Fri, Dec 14, 2018 15:00 6.0 0.0 84.5
Fri, Dec 14, 2018 14:00 5.4 0.0 88.8
Fri, Dec 14, 2018 13:00 4.5 0.0 97.0
Fri, Dec 14, 2018 12:00 4.0 0.2 99.9
Fri, Dec 14, 2018 11:00 3.7 1.2 98.4
Fri, Dec 14, 2018 10:00 3.7 0.4 91.2
Fri, Dec 14, 2018 09:00 3.4 0.0 89.8
Fri, Dec 14, 2018 08:00 2.9 0.0 91.3
Fri, Dec 14, 2018 07:00 2.4 0.0 92.4
Fri, Dec 14, 2018 06:00 1.9 0.0 93.1
Fri, Dec 14, 2018 05:00 1.3 0.0 93.3
Fri, Dec 14, 2018 04:00 0.2 0.0 97.9
Fri, Dec 14, 2018 03:00 -0.9 0.0 99.9
Fri, Dec 14, 2018 02:00 -0.4 0.0 99.7
Fri, Dec 14, 2018 01:00 0.3 0.0 99.0
Fri, Dec 14, 2018 00:00 -0.9 0.0 99.9
Thu, Dec 13, 2018 23:00 -1.3 0.0 99.9
Thu, Dec 13, 2018 22:00 -1.2 0.0 99.9
Thu, Dec 13, 2018 21:00 -0.3 0.0 99.9
Thu, Dec 13, 2018 20:00 0.6 0.0 99.1
Thu, Dec 13, 2018 19:00 2.2 0.0 91.5


asterix Register now to access more data! asterix